ADDS METAR Data INFO
IDs: Format: Raw Decoded Include TAF

Data at: 0044 UTC 23 Oct 2017

KAZE 230035Z AUTO 09004KT 10SM CLR 24/18 A3011 RMK AO2 T02400176
KAZE 230015Z AUTO 09005KT 10SM CLR 24/18 A3011 RMK AO2 T02400175
KAZE 222355Z AUTO 12005KT 10SM CLR 24/18 A3010 RMK AO2 T02430176 10299 20243
KAZE 222335Z AUTO 12004KT 10SM SCT021 SCT026 SCT031 25/18 A3010 RMK AO2 T02470180
KAZE 222315Z AUTO 11010G14KT 10SM SCT021 BKN027 BKN034 26/18 A3011 RMK AO2 T02560181
KAZE 222255Z AUTO 08006KT 10SM SCT030 SCT046 SCT060 26/18 A3010 RMK AO2 T02590182
KAZE 222235Z AUTO 07005KT 10SM -RA SCT032 SCT042 SCT050 26/18 A3010 RMK AO2 T02640180
KAZE 222215Z AUTO 06007KT 10SM SCT036 SCT041 SCT055 27/17 A3011 RMK AO2 T02700174
KAZE 222155Z AUTO 09007KT 10SM SCT036 SCT055 28/17 A3010 RMK AO2 T02800170
KAZE 222135Z AUTO 08007KT 10SM SCT041 SCT048 SCT065 28/17 A3010 RMK AO2 T02780167
KAZE 222115Z AUTO 08005KT 10SM SCT033 SCT039 BKN048 28/17 A3011 RMK AO2 T02800167
KAZE 222055Z AUTO 08006KT 10SM SCT035 SCT046 29/15 A3011 RMK AO2 T02920151
KAZE 222035Z AUTO 10008KT 10SM SCT037 SCT046 SCT050 30/14 A3011 RMK AO2 T02970141
KAZE 222015Z AUTO 12005KT 10SM SCT035 SCT042 SCT050 29/15 A3012 RMK AO2 T02850151
KAZE 221955Z AUTO 11006KT 10SM SCT070 29/15 A3012 RMK AO2 T02930148
KAZE 221935Z AUTO 09008KT 10SM SCT070 29/15 A3013 RMK AO2 T02850153
KAZE 221915Z AUTO 10008KT 10SM SCT029 SCT044 SCT055 28/15 A3013 RMK AO2 T02840153
KAZE 221855Z AUTO 08007KT 10SM SCT029 SCT038 BKN060 27/16 A3014 RMK AO2 T02700163
KAZE 221835Z AUTO 09007KT 10SM SCT031 SCT036 29/15 A3015 RMK AO2 T02900153
KAZE 221815Z AUTO 08007KT 10SM SCT029 SCT040 SCT045 28/16 A3016 RMK AO2 T02810161
KAZE 221755Z AUTO 08009KT 10SM SCT031 SCT044 SCT055 28/17 A3017 RMK AO2 T02790166 10284 20195
KAZE 221735Z AUTO 10007G15KT 10SM SCT026 SCT033 SCT042 28/16 A3017 RMK AO2 T02800163
KAZE 221715Z AUTO 08007KT 10SM SCT026 BKN032 BKN037 27/17 A3018 RMK AO2 T02660166
KAZE 221655Z AUTO 09008KT 10SM BKN027 BKN036 BKN050 27/17 A3020 RMK AO2 T02660166
KAZE 221635Z AUTO 11008G15KT 10SM BKN025 BKN032 26/17 A3020 RMK AO2 T02640170
KAZE 221615Z AUTO 11008KT 10SM BKN025 BKN032 27/17 A3021 RMK AO2 T02730167
KAZE 221555Z AUTO 11009G14KT 10SM SCT021 27/17 A3022 RMK AO2 T02710169
KAZE 221535Z AUTO 11007G16KT 10SM SCT019 27/17 A3022 RMK AO2 T02650172
KAZE 221515Z AUTO 09009G14KT 10SM SCT019 26/17 A3022 RMK AO2 T02620173
KAZE 221455Z AUTO 10008KT 10SM CLR 25/17 A3022 RMK AO2 T02530172
KAZE 221435Z AUTO 11006KT 10SM CLR 24/17 A3023 RMK AO2 T02430169
KAZE 221415Z AUTO 09008KT 10SM CLR 25/17 A3023 RMK AO2 T02480169
KAZE 221355Z AUTO 10004KT 10SM CLR 24/17 A3023 RMK AO2 T02400171
KAZE 221335Z AUTO 09007KT 10SM CLR 23/18 A3023 RMK AO2 T02260175
KAZE 221315Z AUTO 07005KT 10SM CLR 22/18 A3023 RMK AO2 T02190175
KAZE 221255Z AUTO 06005KT 10SM CLR 21/19 A3023 RMK AO2 T02090190
KAZE 221235Z AUTO 07005KT 10SM CLR 20/19 A3022 RMK AO2 T02030190
KAZE 221215Z AUTO 07004KT 10SM CLR 20/19 A3022 RMK AO2 T01970187
KAZE 221155Z AUTO 08006KT 10SM SCT055 20/19 A3021 RMK AO2 T01950185 10203 20190
KAZE 221135Z AUTO 08006KT 10SM OVC055 20/19 A3021 RMK AO2 T01950186
KAZE 221115Z AUTO 07005KT 10SM OVC055 20/19 A3021 RMK AO2 T01950185
KAZE 221055Z AUTO 07005KT 10SM SCT055 19/18 A3020 RMK AO2 T01920183
KAZE 221035Z AUTO 07005KT 10SM CLR 19/18 A3020 RMK AO2 T01900181
KAZE 221015Z AUTO 06005KT 10SM CLR 19/18 A3020 RMK AO2 T01910182
KAZE 220955Z AUTO 05005KT 10SM CLR 19/18 A3019 RMK AO2 T01920182
KAZE 220935Z AUTO 07005KT 10SM SCT030 SCT036 SCT043 19/18 A3019 RMK AO2 T01910182
KAZE 220915Z AUTO 08004KT 10SM SCT030 19/18 A3019 RMK AO2 T01910181
KAZE 220855Z AUTO 07004KT 10SM CLR 19/18 A3019 RMK AO2 T01910181
KAZE 220835Z AUTO 08004KT 10SM CLR 19/18 A3019 RMK AO2 T01900180
KAZE 220815Z AUTO 07005KT 10SM CLR 19/18 A3019 RMK AO2 T01900180
KAZE 220755Z AUTO 06003KT 10SM CLR 19/18 A3019 RMK AO2 T01910180
KAZE 220735Z AUTO 08004KT 10SM CLR 19/18 A3020 RMK AO2 T01930182
KAZE 220715Z AUTO 08004KT 10SM CLR 20/18 A3020 RMK AO2 T01950182
KAZE 220655Z AUTO 09006KT 10SM CLR 20/19 A3021 RMK AO2 T02000185
KAZE 220635Z AUTO 09006KT 10SM CLR 20/18 A3021 RMK AO2 T02000184
KAZE 220615Z AUTO 09005KT 10SM CLR 20/18 A3022 RMK AO2 T02010182
KAZE 220555Z AUTO 09005KT 10SM CLR 20/18 A3023 RMK AO2 T02030181 10241 20203
KAZE 220535Z AUTO 10005KT 10SM CLR 20/18 A3023 RMK AO2 T02030176
KAZE 220515Z AUTO 10005KT 10SM CLR 21/16 A3023 RMK AO2 T02050162
KAZE 220455Z AUTO 08005KT 10SM CLR 21/16 A3022 RMK AO2 T02060160 402940163
KAZE 220435Z AUTO 09005KT 10SM CLR 21/16 A3023 RMK AO2 T02080157
KAZE 220415Z AUTO 08005KT 10SM CLR 21/16 A3023 RMK AO2 T02110156
KAZE 220355Z AUTO 09005KT 10SM CLR 22/16 A3024 RMK AO2 T02150157
KAZE 220335Z AUTO 10006KT 10SM CLR 22/15 A3024 RMK AO2 T02150154
KAZE 220315Z AUTO 09004KT 10SM CLR 22/15 A3025 RMK AO2 T02160151
KAZE 220255Z AUTO 09005KT 10SM CLR 22/15 A3025 RMK AO2 T02200150
KAZE 220235Z AUTO 10003KT 10SM CLR 22/15 A3025 RMK AO2 T02220150
KAZE 220215Z AUTO 10006KT 10SM CLR 23/15 A3025 RMK AO2 T02250150
KAZE 220155Z AUTO 10006KT 10SM CLR 23/15 A3025 RMK AO2 T02260150
KAZE 220135Z AUTO 10007KT 10SM CLR 23/15 A3024 RMK AO2 T02270151
KAZE 220115Z AUTO 10005KT 10SM CLR 23/15 A3024 RMK AO2 T02270150
KAZE 220055Z AUTO 09004KT 10SM CLR 23/15 A3024 RMK AO2 T02310149
KAZE 220030Z AUTO 11005KT 10SM CLR 24/15 A3024 RMK AO2 T02360146
KAZE 220015Z AUTO 11006KT 10SM CLR 24/15 A3023 RMK AO2 T02380145
KAZE 212355Z AUTO 11006KT 10SM CLR 24/15 A3023 RMK AO2 T02410145 10294 20241
KAZE 212335Z AUTO 11005KT 10SM CLR 24/14 A3023 RMK AO2 T02440141
KAZE 212315Z AUTO 11005KT 10SM CLR 25/14 A3022 RMK AO2 T02470139
KAZE 212255Z AUTO 11005KT 10SM CLR 25/14 A3021 RMK AO2 T02520135
KAZE 212235Z AUTO 12005KT 10SM CLR 26/13 A3021 RMK AO2 T02570129
KAZE 212215Z AUTO 12006KT 10SM CLR 26/12 A3021 RMK AO2 T02620120
KAZE 212155Z AUTO 12008KT 10SM SCT041 SCT055 27/11 A3021 RMK AO2 T02710111
KAZE 212135Z AUTO 09004KT 10SM SCT048 SCT060 27/11 A3020 RMK AO2 T02680106
KAZE 212115Z AUTO 07010G16KT 10SM BKN050 BKN055 28/09 A3020 RMK AO2 T02820091
KAZE 212055Z AUTO 14004KT 10SM SCT050 BKN060 29/08 A3020 RMK AO2 T02900080
KAZE 212035Z AUTO 12006KT 10SM SCT048 SCT055 29/08 A3020 RMK AO2 T02850084
KAZE 212015Z AUTO 12007KT 10SM BKN048 BKN055 29/09 A3020 RMK AO2 T02850091
KAZE 211955Z AUTO 10004KT 10SM BKN046 OVC060 29/09 A3020 RMK AO2 T02850086
KAZE 211935Z AUTO 10008KT 080V140 10SM SCT048 SCT060 29/08 A3020 RMK AO2 T02850083
KAZE 211915Z AUTO 10006KT 10SM SCT050 28/07 A3020 RMK AO2 T02790073
KAZE 211855Z AUTO 10006KT 10SM SCT050 28/07 A3020 RMK AO2 T02810065
KAZE 211835Z AUTO 11009KT 10SM BKN050 29/06 A3021 RMK AO2 T02870064
KAZE 211815Z AUTO 13005KT 10SM SCT050 29/07 A3021 RMK AO2 T02850070
KAZE 211755Z AUTO 08007KT 10SM SCT055 29/06 A3022 RMK AO2 T02890060 10289 20166
KAZE 211735Z AUTO 06007KT 10SM CLR 28/08 A3023 RMK AO2 T02830080
KAZE 211715Z AUTO 06004KT 10SM CLR 28/09 A3024 RMK AO2 T02790092
KAZE 211655Z AUTO 06007KT 10SM CLR 27/10 A3025 RMK AO2 T02720098
KAZE 211635Z AUTO 05005KT 10SM CLR 27/11 A3025 RMK AO2 T02650107
KAZE 211615Z AUTO 09005KT 10SM CLR 26/12 A3025 RMK AO2 T02620117
KAZE 211555Z AUTO 08005KT 10SM CLR 26/13 A3026 RMK AO2 T02570125
KAZE 211535Z AUTO 06006KT 10SM CLR 25/13 A3026 RMK AO2 T02530131
KAZE 211515Z AUTO 07004KT 10SM CLR 25/14 A3027 RMK AO2 T02450137
KAZE 211455Z AUTO 08006KT 10SM CLR 23/14 A3027 RMK AO2 T02310138
KAZE 211435Z AUTO 05006KT 10SM CLR 22/14 A3027 RMK AO2 T02200140
KAZE 211415Z AUTO 06005KT 10SM CLR 21/14 A3026 RMK AO2 T02080142
KAZE 211355Z AUTO 07004KT 10SM CLR 19/14 A3026 RMK AO2 T01920141
KAZE 211335Z AUTO 06004KT 10SM SCT041 18/14 A3026 RMK AO2 T01820139
KAZE 211315Z AUTO 06004KT 10SM SCT043 18/14 A3026 RMK AO2 T01780141
KAZE 211255Z AUTO 07003KT 10SM CLR 17/15 A3024 RMK AO2 T01730146